sensor_id;sensor_type;location;lat;lon;timestamp;P1;durP1;ratioP1;P2;durP2;ratioP2
71087;SDS011;58747;50.674;4.616;2022-08-19T00:00:14;13.83;;;11.37;;
71087;SDS011;58747;50.674;4.616;2022-08-19T00:02:41;11.35;;;10.18;;
71087;SDS011;58747;50.674;4.616;2022-08-19T00:05:07;14.13;;;11.47;;
71087;SDS011;58747;50.674;4.616;2022-08-19T00:07:34;11.85;;;10.60;;
71087;SDS011;58747;50.674;4.616;2022-08-19T00:09:59;13.93;;;12.03;;
71087;SDS011;58747;50.674;4.616;2022-08-19T00:12:25;14.07;;;12.60;;
71087;SDS011;58747;50.674;4.616;2022-08-19T00:14:51;14.33;;;12.77;;
71087;SDS011;58747;50.674;4.616;2022-08-19T00:17:17;15.73;;;13.13;;
71087;SDS011;58747;50.674;4.616;2022-08-19T00:19:43;16.30;;;13.33;;
71087;SDS011;58747;50.674;4.616;2022-08-19T00:22:08;18.93;;;15.20;;
71087;SDS011;58747;50.674;4.616;2022-08-19T00:24:34;17.10;;;15.30;;
71087;SDS011;58747;50.674;4.616;2022-08-19T00:27:00;17.13;;;15.33;;
71087;SDS011;58747;50.674;4.616;2022-08-19T00:29:26;18.65;;;15.93;;
71087;SDS011;58747;50.674;4.616;2022-08-19T00:31:53;16.75;;;14.98;;
71087;SDS011;58747;50.674;4.616;2022-08-19T00:34:19;18.05;;;16.15;;
71087;SDS011;58747;50.674;4.616;2022-08-19T00:36:46;17.65;;;15.05;;
71087;SDS011;58747;50.674;4.616;2022-08-19T00:39:12;16.40;;;14.60;;
71087;SDS011;58747;50.674;4.616;2022-08-19T00:41:41;18.58;;;14.60;;
71087;SDS011;58747;50.674;4.616;2022-08-19T00:46:38;17.00;;;13.30;;
71087;SDS011;58747;50.674;4.616;2022-08-19T00:49:10;16.20;;;13.30;;
71087;SDS011;58747;50.674;4.616;2022-08-19T00:51:46;16.23;;;13.00;;
71087;SDS011;58747;50.674;4.616;2022-08-19T00:54:18;16.65;;;13.57;;
71087;SDS011;58747;50.674;4.616;2022-08-19T00:56:46;15.20;;;13.15;;
71087;SDS011;58747;50.674;4.616;2022-08-19T00:59:12;19.92;;;14.95;;
71087;SDS011;58747;50.674;4.616;2022-08-19T01:01:39;16.23;;;13.73;;
71087;SDS011;58747;50.674;4.616;2022-08-19T01:04:07;19.17;;;14.65;;
71087;SDS011;58747;50.674;4.616;2022-08-19T01:06:33;16.00;;;13.23;;
71087;SDS011;58747;50.674;4.616;2022-08-19T01:09:02;17.63;;;13.50;;
71087;SDS011;58747;50.674;4.616;2022-08-19T01:11:29;18.60;;;14.23;;
71087;SDS011;58747;50.674;4.616;2022-08-19T01:13:57;18.53;;;14.67;;
71087;SDS011;58747;50.674;4.616;2022-08-19T01:16:24;16.67;;;13.45;;
71087;SDS011;58747;50.674;4.616;2022-08-19T01:18:52;18.77;;;13.90;;
71087;SDS011;58747;50.674;4.616;2022-08-19T01:21:30;17.40;;;13.60;;
71087;SDS011;58747;50.674;4.616;2022-08-19T01:23:59;18.83;;;14.20;;
71087;SDS011;58747;50.674;4.616;2022-08-19T01:26:25;15.70;;;12.88;;
71087;SDS011;58747;50.674;4.616;2022-08-19T01:28:53;23.33;;;15.23;;
71087;SDS011;58747;50.674;4.616;2022-08-19T01:31:25;22.02;;;15.23;;
71087;SDS011;58747;50.674;4.616;2022-08-19T01:33:52;24.08;;;17.48;;
71087;SDS011;58747;50.674;4.616;2022-08-19T01:36:24;21.60;;;15.85;;
71087;SDS011;58747;50.674;4.616;2022-08-19T01:38:53;24.08;;;15.18;;
71087;SDS011;58747;50.674;4.616;2022-08-19T01:41:18;24.80;;;18.20;;
71087;SDS011;58747;50.674;4.616;2022-08-19T01:43:44;26.07;;;16.80;;
71087;SDS011;58747;50.674;4.616;2022-08-19T01:46:10;25.55;;;17.08;;
71087;SDS011;58747;50.674;4.616;2022-08-19T01:48:36;22.83;;;16.80;;
71087;SDS011;58747;50.674;4.616;2022-08-19T01:51:03;23.93;;;17.90;;
71087;SDS011;58747;50.674;4.616;2022-08-19T01:53:29;23.60;;;16.83;;
71087;SDS011;58747;50.674;4.616;2022-08-19T01:55:55;24.77;;;17.47;;
71087;SDS011;58747;50.674;4.616;2022-08-19T01:58:21;27.45;;;17.73;;
71087;SDS011;58747;50.674;4.616;2022-08-19T02:00:49;26.73;;;18.42;;
71087;SDS011;58747;50.674;4.616;2022-08-19T02:03:15;28.43;;;19.53;;
71087;SDS011;58747;50.674;4.616;2022-08-19T02:05:41;29.23;;;18.50;;
71087;SDS011;58747;50.674;4.616;2022-08-19T02:08:07;30.10;;;19.38;;
71087;SDS011;58747;50.674;4.616;2022-08-19T02:10:33;30.93;;;20.27;;
71087;SDS011;58747;50.674;4.616;2022-08-19T02:12:59;31.20;;;19.77;;
71087;SDS011;58747;50.674;4.616;2022-08-19T02:15:24;34.77;;;22.00;;
71087;SDS011;58747;50.674;4.616;2022-08-19T02:17:50;34.75;;;22.00;;
71087;SDS011;58747;50.674;4.616;2022-08-19T02:20:17;32.85;;;21.27;;
71087;SDS011;58747;50.674;4.616;2022-08-19T02:22:43;33.42;;;21.05;;
71087;SDS011;58747;50.674;4.616;2022-08-19T02:25:09;34.67;;;20.77;;
71087;SDS011;58747;50.674;4.616;2022-08-19T02:27:36;33.50;;;20.95;;
71087;SDS011;58747;50.674;4.616;2022-08-19T02:30:02;32.60;;;21.38;;
71087;SDS011;58747;50.674;4.616;2022-08-19T02:32:30;36.13;;;22.30;;
71087;SDS011;58747;50.674;4.616;2022-08-19T02:34:55;36.13;;;22.80;;
71087;SDS011;58747;50.674;4.616;2022-08-19T02:37:21;36.23;;;22.93;;
71087;SDS011;58747;50.674;4.616;2022-08-19T02:40:05;35.22;;;22.42;;
71087;SDS011;58747;50.674;4.616;2022-08-19T02:42:31;36.10;;;22.55;;
71087;SDS011;58747;50.674;4.616;2022-08-19T02:44:57;35.33;;;21.53;;
71087;SDS011;58747;50.674;4.616;2022-08-19T02:47:22;34.03;;;21.77;;
71087;SDS011;58747;50.674;4.616;2022-08-19T02:49:48;33.20;;;20.65;;
71087;SDS011;58747;50.674;4.616;2022-08-19T02:52:15;34.20;;;21.42;;
71087;SDS011;58747;50.674;4.616;2022-08-19T02:54:41;33.15;;;20.38;;
71087;SDS011;58747;50.674;4.616;2022-08-19T02:57:07;33.17;;;20.02;;
71087;SDS011;58747;50.674;4.616;2022-08-19T02:59:33;31.00;;;19.83;;
71087;SDS011;58747;50.674;4.616;2022-08-19T03:01:58;33.53;;;20.02;;
71087;SDS011;58747;50.674;4.616;2022-08-19T03:04:24;33.07;;;19.63;;
71087;SDS011;58747;50.674;4.616;2022-08-19T03:06:50;31.48;;;20.05;;
71087;SDS011;58747;50.674;4.616;2022-08-19T03:09:17;30.20;;;19.25;;
71087;SDS011;58747;50.674;4.616;2022-08-19T03:11:43;28.13;;;19.00;;
71087;SDS011;58747;50.674;4.616;2022-08-19T03:14:09;27.15;;;17.35;;
71087;SDS011;58747;50.674;4.616;2022-08-19T03:16:39;28.63;;;17.25;;
71087;SDS011;58747;50.674;4.616;2022-08-19T03:19:07;24.98;;;17.08;;
71087;SDS011;58747;50.674;4.616;2022-08-19T03:21:33;27.53;;;17.10;;
71087;SDS011;58747;50.674;4.616;2022-08-19T03:24:00;24.33;;;16.67;;
71087;SDS011;58747;50.674;4.616;2022-08-19T03:26:28;25.20;;;15.68;;
71087;SDS011;58747;50.674;4.616;2022-08-19T03:28:54;28.60;;;16.50;;
71087;SDS011;58747;50.674;4.616;2022-08-19T03:31:21;22.95;;;15.65;;
71087;SDS011;58747;50.674;4.616;2022-08-19T03:33:50;24.02;;;15.52;;
71087;SDS011;58747;50.674;4.616;2022-08-19T03:36:26;23.83;;;15.53;;
71087;SDS011;58747;50.674;4.616;2022-08-19T03:38:53;24.65;;;15.38;;
71087;SDS011;58747;50.674;4.616;2022-08-19T03:41:25;26.88;;;16.55;;
71087;SDS011;58747;50.674;4.616;2022-08-19T03:43:52;25.42;;;16.85;;
71087;SDS011;58747;50.674;4.616;2022-08-19T03:46:20;23.92;;;14.68;;
71087;SDS011;58747;50.674;4.616;2022-08-19T03:48:48;23.17;;;14.37;;
71087;SDS011;58747;50.674;4.616;2022-08-19T03:51:20;23.13;;;14.68;;
71087;SDS011;58747;50.674;4.616;2022-08-19T03:53:47;21.42;;;14.20;;
71087;SDS011;58747;50.674;4.616;2022-08-19T03:56:13;23.10;;;14.90;;
71087;SDS011;58747;50.674;4.616;2022-08-19T03:58:39;22.50;;;15.50;;
71087;SDS011;58747;50.674;4.616;2022-08-19T04:01:10;21.17;;;14.45;;
71087;SDS011;58747;50.674;4.616;2022-08-19T04:03:39;24.38;;;15.68;;
71087;SDS011;58747;50.674;4.616;2022-08-19T04:08:47;26.30;;;15.13;;
71087;SDS011;58747;50.674;4.616;2022-08-19T04:11:16;27.37;;;16.73;;
71087;SDS011;58747;50.674;4.616;2022-08-19T04:13:46;24.75;;;16.05;;
71087;SDS011;58747;50.674;4.616;2022-08-19T04:16:12;25.48;;;15.68;;
71087;SDS011;58747;50.674;4.616;2022-08-19T04:18:38;26.67;;;15.73;;
71087;SDS011;58747;50.674;4.616;2022-08-19T04:21:05;22.73;;;15.45;;
71087;SDS011;58747;50.674;4.616;2022-08-19T04:23:32;27.25;;;16.88;;
71087;SDS011;58747;50.674;4.616;2022-08-19T04:25:58;24.17;;;15.57;;
71087;SDS011;58747;50.674;4.616;2022-08-19T04:28:24;26.57;;;15.77;;
71087;SDS011;58747;50.674;4.616;2022-08-19T04:30:51;27.43;;;16.80;;
71087;SDS011;58747;50.674;4.616;2022-08-19T04:33:18;30.83;;;16.90;;
71087;SDS011;58747;50.674;4.616;2022-08-19T04:35:48;29.08;;;16.58;;
71087;SDS011;58747;50.674;4.616;2022-08-19T04:38:16;28.70;;;18.08;;
71087;SDS011;58747;50.674;4.616;2022-08-19T04:40:45;31.30;;;17.08;;
71087;SDS011;58747;50.674;4.616;2022-08-19T04:43:31;30.40;;;17.60;;
71087;SDS011;58747;50.674;4.616;2022-08-19T04:45:57;28.65;;;17.00;;
71087;SDS011;58747;50.674;4.616;2022-08-19T04:48:23;28.80;;;17.87;;
71087;SDS011;58747;50.674;4.616;2022-08-19T04:50:52;29.25;;;16.67;;
71087;SDS011;58747;50.674;4.616;2022-08-19T04:53:23;30.85;;;17.63;;
71087;SDS011;58747;50.674;4.616;2022-08-19T04:55:53;35.45;;;18.38;;
71087;SDS011;58747;50.674;4.616;2022-08-19T04:58:20;33.40;;;18.48;;
71087;SDS011;58747;50.674;4.616;2022-08-19T05:00:45;26.87;;;16.50;;
71087;SDS011;58747;50.674;4.616;2022-08-19T05:03:10;32.50;;;18.90;;
71087;SDS011;58747;50.674;4.616;2022-08-19T05:05:40;32.33;;;19.50;;
71087;SDS011;58747;50.674;4.616;2022-08-19T05:08:06;31.88;;;19.52;;
71087;SDS011;58747;50.674;4.616;2022-08-19T05:10:34;30.27;;;17.50;;
71087;SDS011;58747;50.674;4.616;2022-08-19T05:13:01;31.63;;;18.42;;
71087;SDS011;58747;50.674;4.616;2022-08-19T05:15:26;27.20;;;15.63;;
71087;SDS011;58747;50.674;4.616;2022-08-19T05:17:51;27.20;;;16.30;;
71087;SDS011;58747;50.674;4.616;2022-08-19T05:20:37;29.17;;;15.95;;
71087;SDS011;58747;50.674;4.616;2022-08-19T05:23:21;25.45;;;15.60;;
71087;SDS011;58747;50.674;4.616;2022-08-19T05:25:46;22.37;;;14.50;;
71087;SDS011;58747;50.674;4.616;2022-08-19T05:28:12;27.50;;;14.23;;
71087;SDS011;58747;50.674;4.616;2022-08-19T05:30:37;23.73;;;14.83;;
71087;SDS011;58747;50.674;4.616;2022-08-19T05:33:02;21.83;;;13.73;;
71087;SDS011;58747;50.674;4.616;2022-08-19T05:35:28;20.03;;;13.57;;
71087;SDS011;58747;50.674;4.616;2022-08-19T05:37:53;20.73;;;13.02;;
71087;SDS011;58747;50.674;4.616;2022-08-19T05:40:19;18.83;;;11.90;;
71087;SDS011;58747;50.674;4.616;2022-08-19T05:42:44;21.90;;;13.38;;
71087;SDS011;58747;50.674;4.616;2022-08-19T05:45:10;26.27;;;14.97;;
71087;SDS011;58747;50.674;4.616;2022-08-19T05:47:36;23.00;;;13.30;;
71087;SDS011;58747;50.674;4.616;2022-08-19T05:50:02;23.00;;;14.03;;
71087;SDS011;58747;50.674;4.616;2022-08-19T05:52:28;20.70;;;13.20;;
71087;SDS011;58747;50.674;4.616;2022-08-19T05:54:54;23.98;;;13.32;;
71087;SDS011;58747;50.674;4.616;2022-08-19T05:57:23;19.00;;;13.03;;
71087;SDS011;58747;50.674;4.616;2022-08-19T05:59:49;22.55;;;14.50;;
71087;SDS011;58747;50.674;4.616;2022-08-19T06:02:16;21.50;;;13.90;;
71087;SDS011;58747;50.674;4.616;2022-08-19T06:04:41;21.03;;;12.50;;
71087;SDS011;58747;50.674;4.616;2022-08-19T06:07:09;25.00;;;14.95;;
71087;SDS011;58747;50.674;4.616;2022-08-19T06:09:35;26.45;;;15.25;;
71087;SDS011;58747;50.674;4.616;2022-08-19T06:12:02;25.07;;;14.50;;
71087;SDS011;58747;50.674;4.616;2022-08-19T06:14:30;22.50;;;14.57;;
71087;SDS011;58747;50.674;4.616;2022-08-19T06:16:59;23.52;;;13.98;;
71087;SDS011;58747;50.674;4.616;2022-08-19T06:19:26;23.13;;;14.02;;
71087;SDS011;58747;50.674;4.616;2022-08-19T06:21:55;22.52;;;15.57;;
71087;SDS011;58747;50.674;4.616;2022-08-19T06:24:23;25.83;;;15.80;;
71087;SDS011;58747;50.674;4.616;2022-08-19T06:26:51;26.02;;;15.63;;
71087;SDS011;58747;50.674;4.616;2022-08-19T06:29:20;25.02;;;14.80;;
71087;SDS011;58747;50.674;4.616;2022-08-19T06:31:50;22.55;;;15.93;;
71087;SDS011;58747;50.674;4.616;2022-08-19T06:34:18;26.23;;;15.60;;
71087;SDS011;58747;50.674;4.616;2022-08-19T06:36:45;27.87;;;16.13;;
71087;SDS011;58747;50.674;4.616;2022-08-19T06:39:14;25.70;;;15.80;;
71087;SDS011;58747;50.674;4.616;2022-08-19T06:41:44;24.90;;;14.90;;
71087;SDS011;58747;50.674;4.616;2022-08-19T06:44:12;24.65;;;14.82;;
71087;SDS011;58747;50.674;4.616;2022-08-19T06:46:39;27.90;;;15.25;;
71087;SDS011;58747;50.674;4.616;2022-08-19T06:49:06;23.00;;;14.40;;
71087;SDS011;58747;50.674;4.616;2022-08-19T06:51:35;20.10;;;13.80;;
71087;SDS011;58747;50.674;4.616;2022-08-19T06:54:01;24.08;;;13.02;;
71087;SDS011;58747;50.674;4.616;2022-08-19T06:56:29;22.55;;;14.05;;
71087;SDS011;58747;50.674;4.616;2022-08-19T06:59:07;20.25;;;12.90;;
71087;SDS011;58747;50.674;4.616;2022-08-19T07:01:38;21.23;;;13.77;;
71087;SDS011;58747;50.674;4.616;2022-08-19T07:04:11;20.95;;;14.27;;
71087;SDS011;58747;50.674;4.616;2022-08-19T07:06:38;19.40;;;13.18;;
71087;SDS011;58747;50.674;4.616;2022-08-19T07:09:04;21.33;;;12.93;;
71087;SDS011;58747;50.674;4.616;2022-08-19T07:11:30;19.40;;;11.98;;
71087;SDS011;58747;50.674;4.616;2022-08-19T07:13:57;19.70;;;11.55;;
71087;SDS011;58747;50.674;4.616;2022-08-19T07:16:23;17.77;;;11.90;;
71087;SDS011;58747;50.674;4.616;2022-08-19T07:18:48;20.20;;;11.43;;
71087;SDS011;58747;50.674;4.616;2022-08-19T07:21:17;18.23;;;11.82;;
71087;SDS011;58747;50.674;4.616;2022-08-19T07:23:47;17.45;;;10.60;;
71087;SDS011;58747;50.674;4.616;2022-08-19T07:28:41;16.65;;;10.90;;
71087;SDS011;58747;50.674;4.616;2022-08-19T07:31:09;13.50;;;9.70;;
71087;SDS011;58747;50.674;4.616;2022-08-19T07:33:39;15.30;;;9.88;;
71087;SDS011;58747;50.674;4.616;2022-08-19T07:36:08;13.60;;;9.60;;
71087;SDS011;58747;50.674;4.616;2022-08-19T07:38:42;12.75;;;9.32;;
71087;SDS011;58747;50.674;4.616;2022-08-19T07:41:11;12.55;;;8.48;;
71087;SDS011;58747;50.674;4.616;2022-08-19T07:43:38;14.43;;;8.97;;
71087;SDS011;58747;50.674;4.616;2022-08-19T07:46:05;11.02;;;9.02;;
71087;SDS011;58747;50.674;4.616;2022-08-19T07:48:31;11.80;;;8.05;;
71087;SDS011;58747;50.674;4.616;2022-08-19T07:50:59;15.77;;;9.40;;
71087;SDS011;58747;50.674;4.616;2022-08-19T07:53:28;13.07;;;8.82;;
71087;SDS011;58747;50.674;4.616;2022-08-19T07:55:55;11.87;;;8.67;;
71087;SDS011;58747;50.674;4.616;2022-08-19T07:58:25;11.50;;;7.80;;
71087;SDS011;58747;50.674;4.616;2022-08-19T08:00:50;11.60;;;8.63;;
71087;SDS011;58747;50.674;4.616;2022-08-19T08:03:18;10.77;;;7.03;;
71087;SDS011;58747;50.674;4.616;2022-08-19T08:05:45;8.88;;;6.80;;
71087;SDS011;58747;50.674;4.616;2022-08-19T08:08:29;8.18;;;7.32;;
71087;SDS011;58747;50.674;4.616;2022-08-19T08:11:16;10.23;;;5.87;;
71087;SDS011;58747;50.674;4.616;2022-08-19T08:13:43;6.82;;;5.13;;
71087;SDS011;58747;50.674;4.616;2022-08-19T08:16:08;8.47;;;6.03;;
71087;SDS011;58747;50.674;4.616;2022-08-19T08:18:35;7.53;;;6.13;;
71087;SDS011;58747;50.674;4.616;2022-08-19T08:21:06;8.15;;;6.55;;
71087;SDS011;58747;50.674;4.616;2022-08-19T08:23:31;9.32;;;5.80;;
71087;SDS011;58747;50.674;4.616;2022-08-19T08:25:57;6.50;;;5.60;;
71087;SDS011;58747;50.674;4.616;2022-08-19T08:28:23;7.00;;;6.03;;
71087;SDS011;58747;50.674;4.616;2022-08-19T08:30:50;6.97;;;5.60;;
71087;SDS011;58747;50.674;4.616;2022-08-19T08:33:17;7.35;;;5.35;;
71087;SDS011;58747;50.674;4.616;2022-08-19T08:35:47;6.55;;;5.47;;
71087;SDS011;58747;50.674;4.616;2022-08-19T08:38:12;6.80;;;5.83;;
71087;SDS011;58747;50.674;4.616;2022-08-19T08:46:13;6.25;;;5.65;;
71087;SDS011;58747;50.674;4.616;2022-08-19T08:51:33;7.40;;;5.18;;
71087;SDS011;58747;50.674;4.616;2022-08-19T08:54:04;5.55;;;4.95;;
71087;SDS011;58747;50.674;4.616;2022-08-19T08:56:31;5.18;;;4.63;;
71087;SDS011;58747;50.674;4.616;2022-08-19T09:01:58;6.35;;;4.88;;
71087;SDS011;58747;50.674;4.616;2022-08-19T09:04:24;5.50;;;4.70;;
71087;SDS011;58747;50.674;4.616;2022-08-19T09:11:58;5.00;;;4.50;;
71087;SDS011;58747;50.674;4.616;2022-08-19T09:16:59;5.27;;;4.67;;
71087;SDS011;58747;50.674;4.616;2022-08-19T09:19:28;5.68;;;5.15;;
71087;SDS011;58747;50.674;4.616;2022-08-19T09:21:54;5.03;;;4.28;;
71087;SDS011;58747;50.674;4.616;2022-08-19T09:24:19;5.20;;;4.10;;
71087;SDS011;58747;50.674;4.616;2022-08-19T09:26:44;4.67;;;3.93;;
71087;SDS011;58747;50.674;4.616;2022-08-19T09:29:10;5.75;;;5.25;;
71087;SDS011;58747;50.674;4.616;2022-08-19T09:31:36;10.73;;;4.63;;
71087;SDS011;58747;50.674;4.616;2022-08-19T09:34:02;4.38;;;3.83;;
71087;SDS011;58747;50.674;4.616;2022-08-19T09:36:29;6.85;;;4.65;;
71087;SDS011;58747;50.674;4.616;2022-08-19T09:38:57;6.03;;;4.03;;
71087;SDS011;58747;50.674;4.616;2022-08-19T09:41:24;5.13;;;4.15;;
71087;SDS011;58747;50.674;4.616;2022-08-19T09:43:52;6.38;;;4.65;;
71087;SDS011;58747;50.674;4.616;2022-08-19T09:46:20;6.68;;;5.15;;
71087;SDS011;58747;50.674;4.616;2022-08-19T09:48:46;6.30;;;5.03;;
71087;SDS011;58747;50.674;4.616;2022-08-19T09:51:14;5.03;;;4.40;;
71087;SDS011;58747;50.674;4.616;2022-08-19T09:53:42;4.70;;;4.30;;
71087;SDS011;58747;50.674;4.616;2022-08-19T09:56:09;5.45;;;3.75;;
71087;SDS011;58747;50.674;4.616;2022-08-19T09:58:35;4.73;;;3.43;;
71087;SDS011;58747;50.674;4.616;2022-08-19T10:01:02;5.68;;;3.53;;
71087;SDS011;58747;50.674;4.616;2022-08-19T10:03:29;7.43;;;5.22;;
71087;SDS011;58747;50.674;4.616;2022-08-19T10:05:57;4.95;;;4.25;;
71087;SDS011;58747;50.674;4.616;2022-08-19T10:08:25;3.60;;;3.30;;
71087;SDS011;58747;50.674;4.616;2022-08-19T10:10:53;5.73;;;4.70;;
71087;SDS011;58747;50.674;4.616;2022-08-19T10:13:23;7.03;;;5.22;;
71087;SDS011;58747;50.674;4.616;2022-08-19T10:15:54;12.07;;;5.90;;
71087;SDS011;58747;50.674;4.616;2022-08-19T10:18:22;6.15;;;5.50;;
71087;SDS011;58747;50.674;4.616;2022-08-19T10:20:50;9.85;;;5.97;;
71087;SDS011;58747;50.674;4.616;2022-08-19T10:23:19;8.07;;;6.03;;
71087;SDS011;58747;50.674;4.616;2022-08-19T10:25:46;11.00;;;8.50;;
71087;SDS011;58747;50.674;4.616;2022-08-19T10:28:11;9.57;;;7.90;;
71087;SDS011;58747;50.674;4.616;2022-08-19T10:30:37;11.38;;;8.02;;
71087;SDS011;58747;50.674;4.616;2022-08-19T10:33:04;10.38;;;7.60;;
71087;SDS011;58747;50.674;4.616;2022-08-19T10:35:29;12.43;;;8.57;;
71087;SDS011;58747;50.674;4.616;2022-08-19T10:37:55;9.45;;;8.43;;
71087;SDS011;58747;50.674;4.616;2022-08-19T10:40:24;11.23;;;7.40;;
71087;SDS011;58747;50.674;4.616;2022-08-19T10:42:51;9.27;;;7.20;;
71087;SDS011;58747;50.674;4.616;2022-08-19T10:45:16;7.95;;;6.72;;
71087;SDS011;58747;50.674;4.616;2022-08-19T10:47:42;7.77;;;6.17;;
71087;SDS011;58747;50.674;4.616;2022-08-19T10:50:07;7.30;;;6.57;;
71087;SDS011;58747;50.674;4.616;2022-08-19T10:52:51;9.55;;;7.25;;
71087;SDS011;58747;50.674;4.616;2022-08-19T10:55:17;8.10;;;5.80;;
71087;SDS011;58747;50.674;4.616;2022-08-19T10:58:03;7.03;;;5.72;;
71087;SDS011;58747;50.674;4.616;2022-08-19T11:00:29;10.27;;;7.32;;
71087;SDS011;58747;50.674;4.616;2022-08-19T11:02:56;7.93;;;5.73;;
71087;SDS011;58747;50.674;4.616;2022-08-19T11:05:22;8.68;;;6.22;;
71087;SDS011;58747;50.674;4.616;2022-08-19T11:07:47;9.90;;;6.77;;
71087;SDS011;58747;50.674;4.616;2022-08-19T11:10:15;7.90;;;7.10;;
71087;SDS011;58747;50.674;4.616;2022-08-19T11:12:43;12.05;;;7.05;;
71087;SDS011;58747;50.674;4.616;2022-08-19T11:15:10;8.60;;;5.85;;
71087;SDS011;58747;50.674;4.616;2022-08-19T11:17:36;9.50;;;7.00;;
71087;SDS011;58747;50.674;4.616;2022-08-19T11:20:08;7.28;;;6.28;;
71087;SDS011;58747;50.674;4.616;2022-08-19T11:22:37;8.45;;;6.63;;
71087;SDS011;58747;50.674;4.616;2022-08-19T11:25:02;9.27;;;6.50;;
71087;SDS011;58747;50.674;4.616;2022-08-19T11:27:28;9.45;;;6.43;;
71087;SDS011;58747;50.674;4.616;2022-08-19T11:29:54;7.57;;;6.43;;
71087;SDS011;58747;50.674;4.616;2022-08-19T11:32:19;5.40;;;4.90;;
71087;SDS011;58747;50.674;4.616;2022-08-19T11:34:44;7.20;;;6.18;;
71087;SDS011;58747;50.674;4.616;2022-08-19T11:37:10;7.10;;;5.87;;
71087;SDS011;58747;50.674;4.616;2022-08-19T11:39:35;7.10;;;6.13;;
71087;SDS011;58747;50.674;4.616;2022-08-19T11:42:02;6.82;;;6.05;;
71087;SDS011;58747;50.674;4.616;2022-08-19T11:44:52;9.23;;;6.85;;
71087;SDS011;58747;50.674;4.616;2022-08-19T11:47:18;8.97;;;5.97;;
71087;SDS011;58747;50.674;4.616;2022-08-19T11:49:45;8.27;;;6.53;;
71087;SDS011;58747;50.674;4.616;2022-08-19T11:52:11;11.90;;;7.47;;
71087;SDS011;58747;50.674;4.616;2022-08-19T11:54:36;7.73;;;6.43;;
71087;SDS011;58747;50.674;4.616;2022-08-19T11:57:03;12.93;;;7.83;;
71087;SDS011;58747;50.674;4.616;2022-08-19T11:59:28;10.95;;;9.05;;
71087;SDS011;58747;50.674;4.616;2022-08-19T12:01:54;12.25;;;8.65;;
71087;SDS011;58747;50.674;4.616;2022-08-19T12:04:20;10.48;;;8.73;;
71087;SDS011;58747;50.674;4.616;2022-08-19T12:06:46;12.97;;;9.17;;
71087;SDS011;58747;50.674;4.616;2022-08-19T12:09:12;13.20;;;9.80;;
71087;SDS011;58747;50.674;4.616;2022-08-19T12:11:39;7.30;;;6.60;;
71087;SDS011;58747;50.674;4.616;2022-08-19T12:14:05;6.90;;;6.10;;
71087;SDS011;58747;50.674;4.616;2022-08-19T12:16:31;6.88;;;6.28;;
71087;SDS011;58747;50.674;4.616;2022-08-19T12:18:57;8.55;;;7.22;;
71087;SDS011;58747;50.674;4.616;2022-08-19T12:21:28;8.65;;;7.38;;
71087;SDS011;58747;50.674;4.616;2022-08-19T12:23:55;13.77;;;8.07;;
71087;SDS011;58747;50.674;4.616;2022-08-19T12:26:22;8.85;;;7.20;;
71087;SDS011;58747;50.674;4.616;2022-08-19T12:28:49;9.80;;;7.47;;
71087;SDS011;58747;50.674;4.616;2022-08-19T12:31:15;7.13;;;6.33;;
71087;SDS011;58747;50.674;4.616;2022-08-19T12:33:41;8.15;;;6.72;;
71087;SDS011;58747;50.674;4.616;2022-08-19T12:36:08;9.02;;;6.18;;
71087;SDS011;58747;50.674;4.616;2022-08-19T12:38:35;6.67;;;5.97;;
71087;SDS011;58747;50.674;4.616;2022-08-19T12:41:02;6.57;;;5.85;;
71087;SDS011;58747;50.674;4.616;2022-08-19T12:43:31;7.20;;;6.50;;
71087;SDS011;58747;50.674;4.616;2022-08-19T12:45:56;8.25;;;7.30;;
71087;SDS011;58747;50.674;4.616;2022-08-19T12:48:22;6.90;;;6.23;;
71087;SDS011;58747;50.674;4.616;2022-08-19T12:50:48;6.28;;;5.28;;
71087;SDS011;58747;50.674;4.616;2022-08-19T12:53:13;6.10;;;5.50;;
71087;SDS011;58747;50.674;4.616;2022-08-19T12:55:39;6.30;;;5.70;;
71087;SDS011;58747;50.674;4.616;2022-08-19T12:58:05;8.63;;;7.63;;
71087;SDS011;58747;50.674;4.616;2022-08-19T13:00:31;9.90;;;9.10;;
71087;SDS011;58747;50.674;4.616;2022-08-19T13:02:57;8.55;;;7.80;;
71087;SDS011;58747;50.674;4.616;2022-08-19T13:05:25;7.15;;;6.53;;
71087;SDS011;58747;50.674;4.616;2022-08-19T13:07:53;8.82;;;6.75;;
71087;SDS011;58747;50.674;4.616;2022-08-19T13:10:21;6.93;;;6.30;;
71087;SDS011;58747;50.674;4.616;2022-08-19T13:12:49;6.83;;;6.17;;
71087;SDS011;58747;50.674;4.616;2022-08-19T13:15:16;6.78;;;6.07;;
71087;SDS011;58747;50.674;4.616;2022-08-19T13:17:45;7.10;;;6.50;;
71087;SDS011;58747;50.674;4.616;2022-08-19T13:20:13;6.28;;;5.10;;
71087;SDS011;58747;50.674;4.616;2022-08-19T13:22:40;6.78;;;6.00;;
71087;SDS011;58747;50.674;4.616;2022-08-19T13:25:06;6.67;;;6.07;;
71087;SDS011;58747;50.674;4.616;2022-08-19T13:27:32;6.45;;;5.85;;
71087;SDS011;58747;50.674;4.616;2022-08-19T13:29:58;6.43;;;5.83;;
71087;SDS011;58747;50.674;4.616;2022-08-19T13:32:43;5.60;;;5.10;;
71087;SDS011;58747;50.674;4.616;2022-08-19T13:35:27;6.18;;;5.55;;
71087;SDS011;58747;50.674;4.616;2022-08-19T13:37:52;5.40;;;4.90;;
71087;SDS011;58747;50.674;4.616;2022-08-19T13:40:19;6.43;;;4.97;;
71087;SDS011;58747;50.674;4.616;2022-08-19T13:42:49;4.93;;;4.40;;
71087;SDS011;58747;50.674;4.616;2022-08-19T13:45:17;6.05;;;5.55;;
71087;SDS011;58747;50.674;4.616;2022-08-19T13:47:45;5.60;;;5.03;;
71087;SDS011;58747;50.674;4.616;2022-08-19T13:50:12;5.05;;;4.65;;
71087;SDS011;58747;50.674;4.616;2022-08-19T13:52:40;5.82;;;5.25;;
71087;SDS011;58747;50.674;4.616;2022-08-19T13:55:07;4.88;;;4.47;;
71087;SDS011;58747;50.674;4.616;2022-08-19T13:57:34;5.95;;;4.97;;
71087;SDS011;58747;50.674;4.616;2022-08-19T14:00:00;4.80;;;4.03;;
71087;SDS011;58747;50.674;4.616;2022-08-19T14:02:26;5.22;;;4.72;;
71087;SDS011;58747;50.674;4.616;2022-08-19T14:04:51;6.10;;;4.73;;
71087;SDS011;58747;50.674;4.616;2022-08-19T14:07:17;4.45;;;4.05;;
71087;SDS011;58747;50.674;4.616;2022-08-19T14:09:43;3.67;;;3.33;;
71087;SDS011;58747;50.674;4.616;2022-08-19T14:12:08;3.60;;;3.28;;
71087;SDS011;58747;50.674;4.616;2022-08-19T14:14:37;2.43;;;2.10;;
71087;SDS011;58747;50.674;4.616;2022-08-19T14:17:06;3.38;;;2.85;;
71087;SDS011;58747;50.674;4.616;2022-08-19T14:19:33;2.97;;;2.73;;
71087;SDS011;58747;50.674;4.616;2022-08-19T14:21:58;2.60;;;2.25;;
71087;SDS011;58747;50.674;4.616;2022-08-19T14:24:23;3.17;;;2.87;;
71087;SDS011;58747;50.674;4.616;2022-08-19T14:26:49;2.93;;;2.73;;
71087;SDS011;58747;50.674;4.616;2022-08-19T14:29:14;2.80;;;2.60;;
71087;SDS011;58747;50.674;4.616;2022-08-19T14:31:40;3.25;;;2.97;;
71087;SDS011;58747;50.674;4.616;2022-08-19T14:34:08;3.80;;;3.55;;
71087;SDS011;58747;50.674;4.616;2022-08-19T14:36:35;3.40;;;2.33;;
71087;SDS011;58747;50.674;4.616;2022-08-19T14:39:01;3.58;;;2.38;;
71087;SDS011;58747;50.674;4.616;2022-08-19T14:41:27;3.00;;;2.80;;
71087;SDS011;58747;50.674;4.616;2022-08-19T14:43:53;5.00;;;3.78;;
71087;SDS011;58747;50.674;4.616;2022-08-19T14:46:20;3.97;;;3.67;;
71087;SDS011;58747;50.674;4.616;2022-08-19T14:48:48;4.97;;;4.47;;
71087;SDS011;58747;50.674;4.616;2022-08-19T14:51:14;8.43;;;4.43;;
71087;SDS011;58747;50.674;4.616;2022-08-19T14:53:40;4.43;;;3.95;;
71087;SDS011;58747;50.674;4.616;2022-08-19T14:56:07;4.60;;;3.80;;
71087;SDS011;58747;50.674;4.616;2022-08-19T14:58:36;4.43;;;3.60;;
71087;SDS011;58747;50.674;4.616;2022-08-19T15:01:02;3.85;;;3.55;;